Annandale, NJ (08801)

9:43 AM EDT on July 29, 2016 (GMT -0400)
Regional Road | | Change Station

Elev 387 ft 40.63 °N, 74.89 °W | Updated 2 minutes ago

Light Rain
Light Rain Mist
72.9 °F
Feels Like 72.9 °F
N
0.0
Wind Variable Wind from SSE
Gusts 8.0 mph

Today
High -- | Low -- °F
--% Chance of Precip.
Yesterday
High -- | Low -- °F
Precip. -- in
Pressure 29.85 in
Visibility 6.0 miles
Clouds Mostly Cloudy 1100 ft
Overcast 4500 ft
Dew Point 72 °F
Humidity 96%
Rainfall 0.00 in
Snow Depth Not available.
5:54 AM 8:17 PM
Waning Crescent, 22% visible
METAR KSMQ 291253Z AUTO 35004KT 6SM -RA BR BKN011 OVC045 22/20 A2985 RMK AO2 SLP108 P0004 T02220200
Pressure 29.85 in
Visibility 6.0 miles
Clouds Mostly Cloudy 1100 ft
Overcast 4500 ft
Dew Point 72 °F
Humidity 96%
Rainfall 0.00 in
Snow Depth Not available.
5:54 AM 8:17 PM
Waning Crescent, 22% visible
METAR KSMQ 291253Z AUTO 35004KT 6SM -RA BR BKN011 OVC045 22/20 A2985 RMK AO2 SLP108 P0004 T02220200

10-Day Weather Forecast

Almanac

Astronomy

Jul. 29, 2016 Rise Set
Actual Time
Civil Twilight
Nautical Twilight
Astronomical Twilight
Moon
Length of Visible Light
Length of Day
Tomorrow will be .
, % of the Moon is Illuminated

Today's Extremes

State Highs State Lows

Community

WunderPhotos

Upload Photos

1,928,340 photos uploaded!

WunderBlog® & News

Nearby

Air Quality

  Air Quality AQ Index Pollutant
Not available.

Snow Depth

Station Depth Elevation

Earthquake Activity

City Distance Mag. Time & Date
Minimum magnitude displayed is 2.5.

Coastal Water Temperatures

Place Temperature

Stations

Nearby Weather Stations

Station Location Temp. Windchill Dew Point Humidity Wind Precip. Elev Updated Type
                   

Watches & Warnings

There are currently no watches in effect.